sensor_id;sensor_type;location;lat;lon;timestamp;P1;durP1;ratioP1;P2;durP2;ratioP2
11238;SDS011;5677;48.488;13.436;2022-11-20T00:01:10;2.80;;;2.50;;
11238;SDS011;5677;48.488;13.436;2022-11-20T00:03:38;3.90;;;3.00;;
11238;SDS011;5677;48.488;13.436;2022-11-20T00:06:07;2.70;;;2.47;;
11238;SDS011;5677;48.488;13.436;2022-11-20T00:08:36;3.10;;;2.80;;
11238;SDS011;5677;48.488;13.436;2022-11-20T00:11:03;4.10;;;3.17;;
11238;SDS011;5677;48.488;13.436;2022-11-20T00:13:31;2.93;;;2.57;;
11238;SDS011;5677;48.488;13.436;2022-11-20T00:15:58;3.40;;;3.07;;
11238;SDS011;5677;48.488;13.436;2022-11-20T00:18:26;3.27;;;2.67;;
11238;SDS011;5677;48.488;13.436;2022-11-20T00:20:59;3.77;;;3.20;;
11238;SDS011;5677;48.488;13.436;2022-11-20T00:23:28;2.87;;;2.60;;
11238;SDS011;5677;48.488;13.436;2022-11-20T00:25:55;3.47;;;2.90;;
11238;SDS011;5677;48.488;13.436;2022-11-20T00:28:22;3.10;;;2.80;;
11238;SDS011;5677;48.488;13.436;2022-11-20T00:30:49;3.37;;;2.60;;
11238;SDS011;5677;48.488;13.436;2022-11-20T00:33:15;3.10;;;2.80;;
11238;SDS011;5677;48.488;13.436;2022-11-20T00:35:42;3.23;;;2.90;;
11238;SDS011;5677;48.488;13.436;2022-11-20T00:38:09;3.13;;;2.73;;
11238;SDS011;5677;48.488;13.436;2022-11-20T00:40:37;2.90;;;2.60;;
11238;SDS011;5677;48.488;13.436;2022-11-20T00:43:04;3.20;;;2.90;;
11238;SDS011;5677;48.488;13.436;2022-11-20T00:45:31;3.17;;;2.93;;
11238;SDS011;5677;48.488;13.436;2022-11-20T00:47:57;3.57;;;2.93;;
11238;SDS011;5677;48.488;13.436;2022-11-20T00:50:24;3.30;;;2.63;;
11238;SDS011;5677;48.488;13.436;2022-11-20T00:52:51;2.97;;;2.47;;
11238;SDS011;5677;48.488;13.436;2022-11-20T00:55:18;3.13;;;2.80;;
11238;SDS011;5677;48.488;13.436;2022-11-20T00:57:46;3.40;;;3.10;;
11238;SDS011;5677;48.488;13.436;2022-11-20T01:00:13;3.00;;;2.70;;
11238;SDS011;5677;48.488;13.436;2022-11-20T01:02:40;2.63;;;2.43;;
11238;SDS011;5677;48.488;13.436;2022-11-20T01:05:07;2.93;;;2.50;;
11238;SDS011;5677;48.488;13.436;2022-11-20T01:07:34;3.27;;;2.60;;
11238;SDS011;5677;48.488;13.436;2022-11-20T01:10:00;3.23;;;2.87;;
11238;SDS011;5677;48.488;13.436;2022-11-20T01:12:28;3.00;;;2.70;;
11238;SDS011;5677;48.488;13.436;2022-11-20T01:14:56;3.00;;;2.60;;
11238;SDS011;5677;48.488;13.436;2022-11-20T01:17:23;3.40;;;2.97;;
11238;SDS011;5677;48.488;13.436;2022-11-20T01:19:50;2.87;;;2.57;;
11238;SDS011;5677;48.488;13.436;2022-11-20T01:22:16;3.40;;;3.00;;
11238;SDS011;5677;48.488;13.436;2022-11-20T01:24:43;3.07;;;2.63;;
11238;SDS011;5677;48.488;13.436;2022-11-20T01:27:10;3.67;;;2.70;;
11238;SDS011;5677;48.488;13.436;2022-11-20T01:29:37;3.80;;;3.10;;
11238;SDS011;5677;48.488;13.436;2022-11-20T01:32:05;3.90;;;3.03;;
11238;SDS011;5677;48.488;13.436;2022-11-20T01:34:32;2.70;;;2.50;;
11238;SDS011;5677;48.488;13.436;2022-11-20T01:36:59;3.40;;;2.77;;
11238;SDS011;5677;48.488;13.436;2022-11-20T01:39:26;2.97;;;2.67;;
11238;SDS011;5677;48.488;13.436;2022-11-20T01:41:53;3.27;;;2.77;;
11238;SDS011;5677;48.488;13.436;2022-11-20T01:44:49;3.20;;;2.73;;
11238;SDS011;5677;48.488;13.436;2022-11-20T01:47:28;3.10;;;2.50;;
11238;SDS011;5677;48.488;13.436;2022-11-20T01:49:59;3.40;;;2.50;;
11238;SDS011;5677;48.488;13.436;2022-11-20T01:52:32;3.30;;;2.60;;
11238;SDS011;5677;48.488;13.436;2022-11-20T01:55:04;3.20;;;2.63;;
11238;SDS011;5677;48.488;13.436;2022-11-20T01:57:35;2.97;;;2.67;;
11238;SDS011;5677;48.488;13.436;2022-11-20T02:00:05;2.73;;;2.53;;
11238;SDS011;5677;48.488;13.436;2022-11-20T02:02:35;3.00;;;2.50;;
11238;SDS011;5677;48.488;13.436;2022-11-20T02:05:09;3.10;;;2.77;;
11238;SDS011;5677;48.488;13.436;2022-11-20T02:07:43;3.20;;;2.80;;
11238;SDS011;5677;48.488;13.436;2022-11-20T02:10:10;2.73;;;2.47;;
11238;SDS011;5677;48.488;13.436;2022-11-20T02:12:37;3.17;;;2.83;;
11238;SDS011;5677;48.488;13.436;2022-11-20T02:15:22;3.70;;;2.70;;
11238;SDS011;5677;48.488;13.436;2022-11-20T02:17:50;3.77;;;3.03;;
11238;SDS011;5677;48.488;13.436;2022-11-20T02:20:17;3.10;;;2.80;;
11238;SDS011;5677;48.488;13.436;2022-11-20T02:22:46;2.57;;;2.37;;
11238;SDS011;5677;48.488;13.436;2022-11-20T02:25:20;3.33;;;2.97;;
11238;SDS011;5677;48.488;13.436;2022-11-20T02:27:48;3.10;;;2.80;;
11238;SDS011;5677;48.488;13.436;2022-11-20T02:30:15;3.20;;;2.83;;
11238;SDS011;5677;48.488;13.436;2022-11-20T02:32:42;3.17;;;2.80;;
11238;SDS011;5677;48.488;13.436;2022-11-20T02:38:08;2.90;;;2.57;;
11238;SDS011;5677;48.488;13.436;2022-11-20T02:40:36;3.40;;;3.00;;
11238;SDS011;5677;48.488;13.436;2022-11-20T02:43:03;3.13;;;2.80;;
11238;SDS011;5677;48.488;13.436;2022-11-20T02:45:30;2.60;;;2.40;;
11238;SDS011;5677;48.488;13.436;2022-11-20T02:47:57;3.30;;;2.80;;
11238;SDS011;5677;48.488;13.436;2022-11-20T02:50:24;3.00;;;2.63;;
11238;SDS011;5677;48.488;13.436;2022-11-20T02:52:51;3.87;;;2.90;;
11238;SDS011;5677;48.488;13.436;2022-11-20T02:55:18;2.90;;;2.50;;
11238;SDS011;5677;48.488;13.436;2022-11-20T02:57:46;3.20;;;2.90;;
11238;SDS011;5677;48.488;13.436;2022-11-20T03:02:40;3.00;;;2.70;;
11238;SDS011;5677;48.488;13.436;2022-11-20T03:05:07;2.90;;;2.60;;
11238;SDS011;5677;48.488;13.436;2022-11-20T03:07:34;3.27;;;2.60;;
11238;SDS011;5677;48.488;13.436;2022-11-20T03:10:01;2.93;;;2.63;;
11238;SDS011;5677;48.488;13.436;2022-11-20T03:12:27;3.47;;;2.90;;
11238;SDS011;5677;48.488;13.436;2022-11-20T03:14:56;2.97;;;2.47;;
11238;SDS011;5677;48.488;13.436;2022-11-20T03:17:22;3.30;;;2.73;;
11238;SDS011;5677;48.488;13.436;2022-11-20T03:19:49;3.33;;;2.83;;
11238;SDS011;5677;48.488;13.436;2022-11-20T03:22:16;2.97;;;2.67;;
11238;SDS011;5677;48.488;13.436;2022-11-20T03:24:43;3.33;;;2.90;;
11238;SDS011;5677;48.488;13.436;2022-11-20T03:27:10;3.00;;;2.70;;
11238;SDS011;5677;48.488;13.436;2022-11-20T03:29:36;2.77;;;2.57;;
11238;SDS011;5677;48.488;13.436;2022-11-20T03:32:05;4.00;;;3.00;;
11238;SDS011;5677;48.488;13.436;2022-11-20T03:34:33;3.93;;;3.00;;
11238;SDS011;5677;48.488;13.436;2022-11-20T03:36:59;3.50;;;2.43;;
11238;SDS011;5677;48.488;13.436;2022-11-20T03:39:26;3.37;;;2.53;;
11238;SDS011;5677;48.488;13.436;2022-11-20T03:41:53;2.70;;;2.43;;
11238;SDS011;5677;48.488;13.436;2022-11-20T03:44:20;3.57;;;3.07;;
11238;SDS011;5677;48.488;13.436;2022-11-20T03:46:47;2.53;;;2.33;;
11238;SDS011;5677;48.488;13.436;2022-11-20T03:49:15;3.40;;;2.73;;
11238;SDS011;5677;48.488;13.436;2022-11-20T03:51:42;3.30;;;3.00;;
11238;SDS011;5677;48.488;13.436;2022-11-20T03:54:09;3.27;;;2.73;;
11238;SDS011;5677;48.488;13.436;2022-11-20T03:56:36;2.97;;;2.67;;
11238;SDS011;5677;48.488;13.436;2022-11-20T03:59:04;3.17;;;2.70;;
11238;SDS011;5677;48.488;13.436;2022-11-20T04:01:32;3.30;;;2.60;;
11238;SDS011;5677;48.488;13.436;2022-11-20T04:04:00;3.83;;;3.13;;
11238;SDS011;5677;48.488;13.436;2022-11-20T04:06:29;2.90;;;2.60;;
11238;SDS011;5677;48.488;13.436;2022-11-20T04:08:59;3.00;;;2.70;;
11238;SDS011;5677;48.488;13.436;2022-11-20T04:11:26;3.00;;;2.67;;
11238;SDS011;5677;48.488;13.436;2022-11-20T04:13:55;3.13;;;2.83;;
11238;SDS011;5677;48.488;13.436;2022-11-20T04:16:23;2.93;;;2.60;;
11238;SDS011;5677;48.488;13.436;2022-11-20T04:18:52;3.17;;;2.77;;
11238;SDS011;5677;48.488;13.436;2022-11-20T04:21:19;2.93;;;2.53;;
11238;SDS011;5677;48.488;13.436;2022-11-20T04:23:48;3.60;;;2.73;;
11238;SDS011;5677;48.488;13.436;2022-11-20T04:26:15;2.60;;;2.40;;
11238;SDS011;5677;48.488;13.436;2022-11-20T04:28:42;3.10;;;2.80;;
11238;SDS011;5677;48.488;13.436;2022-11-20T04:31:10;3.77;;;2.80;;
11238;SDS011;5677;48.488;13.436;2022-11-20T04:33:37;3.10;;;2.80;;
11238;SDS011;5677;48.488;13.436;2022-11-20T04:36:05;3.10;;;2.60;;
11238;SDS011;5677;48.488;13.436;2022-11-20T04:38:36;3.10;;;2.80;;
11238;SDS011;5677;48.488;13.436;2022-11-20T04:41:04;3.00;;;2.67;;
11238;SDS011;5677;48.488;13.436;2022-11-20T04:43:32;3.60;;;2.90;;
11238;SDS011;5677;48.488;13.436;2022-11-20T04:46:00;3.27;;;2.93;;
11238;SDS011;5677;48.488;13.436;2022-11-20T04:48:28;3.77;;;3.00;;
11238;SDS011;5677;48.488;13.436;2022-11-20T04:50:55;3.57;;;3.00;;
11238;SDS011;5677;48.488;13.436;2022-11-20T04:53:22;3.60;;;3.10;;
11238;SDS011;5677;48.488;13.436;2022-11-20T04:55:49;2.87;;;2.57;;
11238;SDS011;5677;48.488;13.436;2022-11-20T04:58:17;3.53;;;2.83;;
11238;SDS011;5677;48.488;13.436;2022-11-20T05:00:44;2.80;;;2.37;;
11238;SDS011;5677;48.488;13.436;2022-11-20T05:03:10;3.13;;;2.73;;
11238;SDS011;5677;48.488;13.436;2022-11-20T05:05:37;2.77;;;2.57;;
11238;SDS011;5677;48.488;13.436;2022-11-20T05:08:04;3.00;;;2.70;;
11238;SDS011;5677;48.488;13.436;2022-11-20T05:10:31;2.77;;;2.53;;
11238;SDS011;5677;48.488;13.436;2022-11-20T05:12:58;3.00;;;2.70;;
11238;SDS011;5677;48.488;13.436;2022-11-20T05:15:26;3.30;;;3.00;;
11238;SDS011;5677;48.488;13.436;2022-11-20T05:17:53;3.20;;;2.57;;
11238;SDS011;5677;48.488;13.436;2022-11-20T05:20:20;3.67;;;2.83;;
11238;SDS011;5677;48.488;13.436;2022-11-20T05:22:46;2.67;;;2.43;;
11238;SDS011;5677;48.488;13.436;2022-11-20T05:25:13;3.23;;;2.93;;
11238;SDS011;5677;48.488;13.436;2022-11-20T05:27:40;3.60;;;2.80;;
11238;SDS011;5677;48.488;13.436;2022-11-20T05:30:08;3.47;;;2.90;;
11238;SDS011;5677;48.488;13.436;2022-11-20T05:32:37;2.80;;;2.60;;
11238;SDS011;5677;48.488;13.436;2022-11-20T05:35:04;3.80;;;2.73;;
11238;SDS011;5677;48.488;13.436;2022-11-20T05:37:31;3.00;;;2.70;;
11238;SDS011;5677;48.488;13.436;2022-11-20T05:39:58;3.57;;;2.90;;
11238;SDS011;5677;48.488;13.436;2022-11-20T05:42:25;2.60;;;2.40;;
11238;SDS011;5677;48.488;13.436;2022-11-20T05:44:57;3.63;;;3.00;;
11238;SDS011;5677;48.488;13.436;2022-11-20T05:47:24;3.63;;;2.70;;
11238;SDS011;5677;48.488;13.436;2022-11-20T05:49:53;3.20;;;2.63;;
11238;SDS011;5677;48.488;13.436;2022-11-20T05:52:19;2.83;;;2.50;;
11238;SDS011;5677;48.488;13.436;2022-11-20T05:54:46;3.07;;;2.70;;
11238;SDS011;5677;48.488;13.436;2022-11-20T05:57:13;3.33;;;2.80;;
11238;SDS011;5677;48.488;13.436;2022-11-20T05:59:40;3.20;;;2.30;;
11238;SDS011;5677;48.488;13.436;2022-11-20T06:02:07;3.03;;;2.53;;
11238;SDS011;5677;48.488;13.436;2022-11-20T06:04:34;2.97;;;2.67;;
11238;SDS011;5677;48.488;13.436;2022-11-20T06:07:04;3.00;;;2.57;;
11238;SDS011;5677;48.488;13.436;2022-11-20T06:09:31;3.10;;;2.80;;
11238;SDS011;5677;48.488;13.436;2022-11-20T06:11:58;3.17;;;2.80;;
11238;SDS011;5677;48.488;13.436;2022-11-20T06:14:25;3.03;;;2.73;;
11238;SDS011;5677;48.488;13.436;2022-11-20T06:16:51;3.30;;;2.77;;
11238;SDS011;5677;48.488;13.436;2022-11-20T06:19:18;3.07;;;2.60;;
11238;SDS011;5677;48.488;13.436;2022-11-20T06:21:47;3.03;;;2.63;;
11238;SDS011;5677;48.488;13.436;2022-11-20T06:24:15;3.90;;;3.17;;
11238;SDS011;5677;48.488;13.436;2022-11-20T06:26:42;3.53;;;2.63;;
11238;SDS011;5677;48.488;13.436;2022-11-20T06:29:09;2.73;;;2.50;;
11238;SDS011;5677;48.488;13.436;2022-11-20T06:31:36;3.23;;;2.70;;
11238;SDS011;5677;48.488;13.436;2022-11-20T06:34:03;3.27;;;2.60;;
11238;SDS011;5677;48.488;13.436;2022-11-20T06:36:31;3.10;;;2.80;;
11238;SDS011;5677;48.488;13.436;2022-11-20T06:38:58;2.87;;;2.57;;
11238;SDS011;5677;48.488;13.436;2022-11-20T06:41:26;2.67;;;2.47;;
11238;SDS011;5677;48.488;13.436;2022-11-20T06:43:54;3.00;;;2.70;;
11238;SDS011;5677;48.488;13.436;2022-11-20T06:46:21;3.13;;;2.67;;
11238;SDS011;5677;48.488;13.436;2022-11-20T06:48:48;3.10;;;2.80;;
11238;SDS011;5677;48.488;13.436;2022-11-20T06:51:15;3.00;;;2.70;;
11238;SDS011;5677;48.488;13.436;2022-11-20T06:53:42;3.77;;;2.87;;
11238;SDS011;5677;48.488;13.436;2022-11-20T06:56:09;3.10;;;2.80;;
11238;SDS011;5677;48.488;13.436;2022-11-20T06:58:37;3.47;;;2.97;;
11238;SDS011;5677;48.488;13.436;2022-11-20T07:01:05;3.03;;;2.73;;
11238;SDS011;5677;48.488;13.436;2022-11-20T07:03:33;3.03;;;2.70;;
11238;SDS011;5677;48.488;13.436;2022-11-20T07:06:00;2.97;;;2.77;;
11238;SDS011;5677;48.488;13.436;2022-11-20T07:08:27;3.13;;;2.83;;
11238;SDS011;5677;48.488;13.436;2022-11-20T07:10:57;2.93;;;2.70;;
11238;SDS011;5677;48.488;13.436;2022-11-20T07:13:24;3.63;;;2.90;;
11238;SDS011;5677;48.488;13.436;2022-11-20T07:15:53;2.93;;;2.63;;
11238;SDS011;5677;48.488;13.436;2022-11-20T07:18:20;2.87;;;2.57;;
11238;SDS011;5677;48.488;13.436;2022-11-20T07:20:47;3.07;;;2.77;;
11238;SDS011;5677;48.488;13.436;2022-11-20T07:23:14;3.07;;;2.77;;
11238;SDS011;5677;48.488;13.436;2022-11-20T07:25:40;2.77;;;2.53;;
11238;SDS011;5677;48.488;13.436;2022-11-20T07:28:07;3.40;;;2.60;;
11238;SDS011;5677;48.488;13.436;2022-11-20T07:30:35;3.57;;;2.73;;
11238;SDS011;5677;48.488;13.436;2022-11-20T07:33:04;2.83;;;2.53;;
11238;SDS011;5677;48.488;13.436;2022-11-20T07:35:31;2.90;;;2.50;;
11238;SDS011;5677;48.488;13.436;2022-11-20T07:37:58;2.80;;;2.50;;
11238;SDS011;5677;48.488;13.436;2022-11-20T07:40:25;3.00;;;2.70;;
11238;SDS011;5677;48.488;13.436;2022-11-20T07:42:52;3.07;;;2.57;;
11238;SDS011;5677;48.488;13.436;2022-11-20T07:45:21;3.50;;;2.70;;
11238;SDS011;5677;48.488;13.436;2022-11-20T07:47:49;2.87;;;2.53;;
11238;SDS011;5677;48.488;13.436;2022-11-20T07:50:18;2.87;;;2.50;;
11238;SDS011;5677;48.488;13.436;2022-11-20T07:52:45;2.83;;;2.40;;
11238;SDS011;5677;48.488;13.436;2022-11-20T07:55:12;3.07;;;2.77;;
11238;SDS011;5677;48.488;13.436;2022-11-20T07:57:39;2.77;;;2.47;;
11238;SDS011;5677;48.488;13.436;2022-11-20T08:00:06;2.73;;;2.50;;
11238;SDS011;5677;48.488;13.436;2022-11-20T08:02:36;3.50;;;2.77;;
11238;SDS011;5677;48.488;13.436;2022-11-20T08:05:04;3.67;;;2.60;;
11238;SDS011;5677;48.488;13.436;2022-11-20T08:07:36;3.00;;;2.70;;
11238;SDS011;5677;48.488;13.436;2022-11-20T08:10:03;2.87;;;2.67;;
11238;SDS011;5677;48.488;13.436;2022-11-20T08:12:31;4.00;;;2.80;;
11238;SDS011;5677;48.488;13.436;2022-11-20T08:15:15;3.23;;;2.77;;
11238;SDS011;5677;48.488;13.436;2022-11-20T08:17:42;2.80;;;2.60;;
11238;SDS011;5677;48.488;13.436;2022-11-20T08:20:09;3.40;;;2.83;;
11238;SDS011;5677;48.488;13.436;2022-11-20T08:22:38;2.93;;;2.63;;
11238;SDS011;5677;48.488;13.436;2022-11-20T08:25:05;2.40;;;2.20;;
11238;SDS011;5677;48.488;13.436;2022-11-20T08:27:32;2.70;;;2.40;;
11238;SDS011;5677;48.488;13.436;2022-11-20T08:29:59;3.43;;;2.67;;
11238;SDS011;5677;48.488;13.436;2022-11-20T08:32:26;2.73;;;2.30;;
11238;SDS011;5677;48.488;13.436;2022-11-20T08:34:52;2.80;;;2.50;;
11238;SDS011;5677;48.488;13.436;2022-11-20T08:37:19;3.10;;;2.80;;
11238;SDS011;5677;48.488;13.436;2022-11-20T08:39:47;3.47;;;2.70;;
11238;SDS011;5677;48.488;13.436;2022-11-20T08:42:14;2.63;;;2.43;;
11238;SDS011;5677;48.488;13.436;2022-11-20T08:44:41;3.23;;;2.50;;
11238;SDS011;5677;48.488;13.436;2022-11-20T08:47:08;2.93;;;2.63;;
11238;SDS011;5677;48.488;13.436;2022-11-20T08:49:34;3.27;;;2.43;;
11238;SDS011;5677;48.488;13.436;2022-11-20T08:52:01;3.53;;;2.77;;
11238;SDS011;5677;48.488;13.436;2022-11-20T08:54:28;2.70;;;2.30;;
11238;SDS011;5677;48.488;13.436;2022-11-20T08:56:56;2.93;;;2.60;;
11238;SDS011;5677;48.488;13.436;2022-11-20T08:59:23;3.30;;;2.60;;
11238;SDS011;5677;48.488;13.436;2022-11-20T09:01:50;2.77;;;2.57;;
11238;SDS011;5677;48.488;13.436;2022-11-20T09:04:16;3.00;;;2.63;;
11238;SDS011;5677;48.488;13.436;2022-11-20T09:06:43;2.30;;;2.10;;
11238;SDS011;5677;48.488;13.436;2022-11-20T09:09:10;2.87;;;2.63;;
11238;SDS011;5677;48.488;13.436;2022-11-20T09:11:37;2.40;;;2.20;;
11238;SDS011;5677;48.488;13.436;2022-11-20T09:14:05;2.87;;;2.50;;
11238;SDS011;5677;48.488;13.436;2022-11-20T09:16:32;3.43;;;2.37;;
11238;SDS011;5677;48.488;13.436;2022-11-20T09:18:59;3.17;;;2.57;;
11238;SDS011;5677;48.488;13.436;2022-11-20T09:21:25;3.33;;;2.47;;
11238;SDS011;5677;48.488;13.436;2022-11-20T09:23:52;2.90;;;2.47;;
11238;SDS011;5677;48.488;13.436;2022-11-20T09:26:19;2.80;;;2.43;;
11238;SDS011;5677;48.488;13.436;2022-11-20T09:28:46;2.77;;;2.30;;
11238;SDS011;5677;48.488;13.436;2022-11-20T09:31:17;2.67;;;2.40;;
11238;SDS011;5677;48.488;13.436;2022-11-20T09:33:48;3.10;;;2.80;;
11238;SDS011;5677;48.488;13.436;2022-11-20T09:36:14;2.60;;;2.30;;
11238;SDS011;5677;48.488;13.436;2022-11-20T09:38:43;2.50;;;2.27;;
11238;SDS011;5677;48.488;13.436;2022-11-20T09:41:14;2.40;;;2.20;;
11238;SDS011;5677;48.488;13.436;2022-11-20T09:43:57;2.73;;;2.53;;
11238;SDS011;5677;48.488;13.436;2022-11-20T09:46:35;3.07;;;2.57;;
11238;SDS011;5677;48.488;13.436;2022-11-20T09:49:13;2.40;;;2.20;;
11238;SDS011;5677;48.488;13.436;2022-11-20T09:51:51;2.70;;;2.50;;
11238;SDS011;5677;48.488;13.436;2022-11-20T09:54:26;2.80;;;2.57;;
11238;SDS011;5677;48.488;13.436;2022-11-20T09:56:58;2.40;;;2.20;;
11238;SDS011;5677;48.488;13.436;2022-11-20T09:59:30;2.67;;;2.30;;
11238;SDS011;5677;48.488;13.436;2022-11-20T10:02:03;2.83;;;2.50;;
11238;SDS011;5677;48.488;13.436;2022-11-20T10:04:42;2.57;;;2.37;;
11238;SDS011;5677;48.488;13.436;2022-11-20T10:07:15;2.63;;;2.20;;
11238;SDS011;5677;48.488;13.436;2022-11-20T10:09:48;3.00;;;2.50;;
11238;SDS011;5677;48.488;13.436;2022-11-20T10:12:19;2.50;;;2.30;;
11238;SDS011;5677;48.488;13.436;2022-11-20T10:14:58;2.17;;;1.93;;
11238;SDS011;5677;48.488;13.436;2022-11-20T10:17:47;2.20;;;2.00;;
11238;SDS011;5677;48.488;13.436;2022-11-20T10:20:28;2.70;;;2.27;;
11238;SDS011;5677;48.488;13.436;2022-11-20T10:23:16;2.47;;;2.27;;
11238;SDS011;5677;48.488;13.436;2022-11-20T10:26:17;2.63;;;2.43;;
11238;SDS011;5677;48.488;13.436;2022-11-20T10:28:53;2.40;;;2.20;;
11238;SDS011;5677;48.488;13.436;2022-11-20T10:31:29;2.97;;;2.40;;
11238;SDS011;5677;48.488;13.436;2022-11-20T10:34:01;2.10;;;1.90;;
11238;SDS011;5677;48.488;13.436;2022-11-20T10:36:33;2.90;;;2.40;;
11238;SDS011;5677;48.488;13.436;2022-11-20T10:39:05;2.20;;;1.83;;
11238;SDS011;5677;48.488;13.436;2022-11-20T10:41:34;2.93;;;2.50;;
11238;SDS011;5677;48.488;13.436;2022-11-20T10:44:09;2.40;;;2.20;;
11238;SDS011;5677;48.488;13.436;2022-11-20T10:46:42;3.27;;;2.33;;
11238;SDS011;5677;48.488;13.436;2022-11-20T10:49:15;2.60;;;2.37;;
11238;SDS011;5677;48.488;13.436;2022-11-20T10:51:50;3.23;;;2.63;;
11238;SDS011;5677;48.488;13.436;2022-11-20T10:54:28;3.00;;;2.20;;
11238;SDS011;5677;48.488;13.436;2022-11-20T10:57:05;2.80;;;2.50;;
11238;SDS011;5677;48.488;13.436;2022-11-20T10:59:41;2.63;;;2.30;;
11238;SDS011;5677;48.488;13.436;2022-11-20T11:02:24;2.13;;;1.93;;
11238;SDS011;5677;48.488;13.436;2022-11-20T11:05:00;2.77;;;2.30;;
11238;SDS011;5677;48.488;13.436;2022-11-20T11:07:36;2.57;;;2.20;;
11238;SDS011;5677;48.488;13.436;2022-11-20T11:10:12;3.13;;;2.53;;
11238;SDS011;5677;48.488;13.436;2022-11-20T11:12:42;2.47;;;2.10;;
11238;SDS011;5677;48.488;13.436;2022-11-20T11:15:12;2.60;;;2.10;;
11238;SDS011;5677;48.488;13.436;2022-11-20T11:17:46;2.50;;;2.20;;
11238;SDS011;5677;48.488;13.436;2022-11-20T11:20:16;2.57;;;2.33;;
11238;SDS011;5677;48.488;13.436;2022-11-20T11:22:46;2.40;;;2.20;;
11238;SDS011;5677;48.488;13.436;2022-11-20T11:25:22;2.60;;;2.33;;
11238;SDS011;5677;48.488;13.436;2022-11-20T11:27:53;2.30;;;2.10;;
11238;SDS011;5677;48.488;13.436;2022-11-20T11:30:22;2.50;;;2.30;;
11238;SDS011;5677;48.488;13.436;2022-11-20T11:32:50;2.53;;;2.10;;
11238;SDS011;5677;48.488;13.436;2022-11-20T11:35:30;2.57;;;2.37;;
11238;SDS011;5677;48.488;13.436;2022-11-20T11:38:02;2.40;;;2.20;;
11238;SDS011;5677;48.488;13.436;2022-11-20T11:40:31;2.43;;;2.13;;
11238;SDS011;5677;48.488;13.436;2022-11-20T11:42:59;2.80;;;2.20;;
11238;SDS011;5677;48.488;13.436;2022-11-20T11:45:28;2.80;;;2.17;;
11238;SDS011;5677;48.488;13.436;2022-11-20T11:47:55;2.63;;;2.43;;
11238;SDS011;5677;48.488;13.436;2022-11-20T11:50:24;2.67;;;2.27;;
11238;SDS011;5677;48.488;13.436;2022-11-20T11:52:58;2.20;;;2.00;;
11238;SDS011;5677;48.488;13.436;2022-11-20T11:55:35;2.37;;;2.17;;
11238;SDS011;5677;48.488;13.436;2022-11-20T11:58:17;2.60;;;2.30;;
11238;SDS011;5677;48.488;13.436;2022-11-20T12:00:54;2.50;;;2.30;;
11238;SDS011;5677;48.488;13.436;2022-11-20T12:03:27;2.20;;;2.00;;
11238;SDS011;5677;48.488;13.436;2022-11-20T12:06:02;2.47;;;2.27;;
11238;SDS011;5677;48.488;13.436;2022-11-20T12:08:39;2.60;;;2.40;;
11238;SDS011;5677;48.488;13.436;2022-11-20T12:11:12;2.50;;;2.30;;
11238;SDS011;5677;48.488;13.436;2022-11-20T12:13:46;2.40;;;2.20;;
11238;SDS011;5677;48.488;13.436;2022-11-20T12:16:19;2.67;;;2.20;;
11238;SDS011;5677;48.488;13.436;2022-11-20T12:18:47;2.27;;;2.07;;
11238;SDS011;5677;48.488;13.436;2022-11-20T12:21:20;2.37;;;2.10;;
11238;SDS011;5677;48.488;13.436;2022-11-20T12:24:00;2.33;;;2.13;;
11238;SDS011;5677;48.488;13.436;2022-11-20T12:26:38;2.40;;;2.00;;
11238;SDS011;5677;48.488;13.436;2022-11-20T12:29:17;2.10;;;1.90;;
11238;SDS011;5677;48.488;13.436;2022-11-20T12:31:52;2.17;;;1.97;;
11238;SDS011;5677;48.488;13.436;2022-11-20T12:34:37;2.27;;;2.07;;
11238;SDS011;5677;48.488;13.436;2022-11-20T12:37:21;2.47;;;2.20;;
11238;SDS011;5677;48.488;13.436;2022-11-20T12:39:58;2.63;;;2.33;;
11238;SDS011;5677;48.488;13.436;2022-11-20T12:42:45;2.40;;;2.03;;
11238;SDS011;5677;48.488;13.436;2022-11-20T12:51:42;3.07;;;2.40;;
11238;SDS011;5677;48.488;13.436;2022-11-20T12:54:29;2.47;;;2.10;;
11238;SDS011;5677;48.488;13.436;2022-11-20T12:57:14;2.23;;;2.03;;
11238;SDS011;5677;48.488;13.436;2022-11-20T12:59:50;2.20;;;2.00;;
11238;SDS011;5677;48.488;13.436;2022-11-20T13:02:30;2.30;;;2.10;;
11238;SDS011;5677;48.488;13.436;2022-11-20T13:05:11;2.27;;;2.00;;
11238;SDS011;5677;48.488;13.436;2022-11-20T13:07:46;2.10;;;1.90;;
11238;SDS011;5677;48.488;13.436;2022-11-20T13:10:14;2.77;;;2.30;;
11238;SDS011;5677;48.488;13.436;2022-11-20T13:12:46;2.17;;;1.97;;
11238;SDS011;5677;48.488;13.436;2022-11-20T13:15:22;2.13;;;1.93;;
11238;SDS011;5677;48.488;13.436;2022-11-20T13:18:01;2.50;;;2.10;;
11238;SDS011;5677;48.488;13.436;2022-11-20T13:20:30;2.47;;;2.27;;
11238;SDS011;5677;48.488;13.436;2022-11-20T13:22:59;2.23;;;1.93;;
11238;SDS011;5677;48.488;13.436;2022-11-20T13:25:27;2.50;;;2.17;;
11238;SDS011;5677;48.488;13.436;2022-11-20T13:27:57;2.40;;;2.20;;
11238;SDS011;5677;48.488;13.436;2022-11-20T13:30:25;2.10;;;1.90;;
11238;SDS011;5677;48.488;13.436;2022-11-20T13:32:54;2.17;;;1.97;;
11238;SDS011;5677;48.488;13.436;2022-11-20T13:35:26;2.20;;;2.00;;
11238;SDS011;5677;48.488;13.436;2022-11-20T13:38:02;2.33;;;2.03;;
11238;SDS011;5677;48.488;13.436;2022-11-20T13:40:33;2.47;;;2.13;;
11238;SDS011;5677;48.488;13.436;2022-11-20T13:43:07;2.50;;;2.30;;
11238;SDS011;5677;48.488;13.436;2022-11-20T13:45:40;2.20;;;2.00;;
11238;SDS011;5677;48.488;13.436;2022-11-20T13:48:18;2.43;;;2.23;;
11238;SDS011;5677;48.488;13.436;2022-11-20T13:50:50;2.50;;;2.10;;
11238;SDS011;5677;48.488;13.436;2022-11-20T13:53:29;2.63;;;2.10;;
11238;SDS011;5677;48.488;13.436;2022-11-20T13:56:08;2.10;;;1.90;;
11238;SDS011;5677;48.488;13.436;2022-11-20T13:58:47;2.80;;;2.17;;
11238;SDS011;5677;48.488;13.436;2022-11-20T14:01:20;1.70;;;1.60;;
11238;SDS011;5677;48.488;13.436;2022-11-20T14:03:49;2.30;;;2.10;;
11238;SDS011;5677;48.488;13.436;2022-11-20T14:06:20;2.50;;;2.00;;
11238;SDS011;5677;48.488;13.436;2022-11-20T14:08:52;2.83;;;2.10;;
11238;SDS011;5677;48.488;13.436;2022-11-20T14:11:20;2.47;;;2.00;;
11238;SDS011;5677;48.488;13.436;2022-11-20T14:14:00;2.47;;;2.07;;
11238;SDS011;5677;48.488;13.436;2022-11-20T14:16:30;2.37;;;2.17;;
11238;SDS011;5677;48.488;13.436;2022-11-20T14:19:16;2.10;;;1.90;;
11238;SDS011;5677;48.488;13.436;2022-11-20T14:21:53;2.07;;;1.97;;
11238;SDS011;5677;48.488;13.436;2022-11-20T14:24:32;2.30;;;2.07;;
11238;SDS011;5677;48.488;13.436;2022-11-20T14:26:59;2.17;;;1.97;;
11238;SDS011;5677;48.488;13.436;2022-11-20T14:29:28;1.90;;;1.70;;
11238;SDS011;5677;48.488;13.436;2022-11-20T14:31:59;1.80;;;1.70;;
11238;SDS011;5677;48.488;13.436;2022-11-20T14:34:28;1.90;;;1.70;;
11238;SDS011;5677;48.488;13.436;2022-11-20T14:36:58;1.80;;;1.70;;
11238;SDS011;5677;48.488;13.436;2022-11-20T14:39:27;1.83;;;1.73;;
11238;SDS011;5677;48.488;13.436;2022-11-20T14:41:57;2.10;;;1.90;;
11238;SDS011;5677;48.488;13.436;2022-11-20T14:44:25;2.00;;;1.80;;
11238;SDS011;5677;48.488;13.436;2022-11-20T14:46:56;1.93;;;1.73;;
11238;SDS011;5677;48.488;13.436;2022-11-20T14:49:24;2.23;;;2.00;;
11238;SDS011;5677;48.488;13.436;2022-11-20T14:51:58;2.27;;;2.07;;
11238;SDS011;5677;48.488;13.436;2022-11-20T14:54:25;2.10;;;1.90;;
11238;SDS011;5677;48.488;13.436;2022-11-20T14:56:53;2.47;;;1.80;;
11238;SDS011;5677;48.488;13.436;2022-11-20T14:59:22;2.23;;;2.00;;
11238;SDS011;5677;48.488;13.436;2022-11-20T15:01:55;2.20;;;2.00;;
11238;SDS011;5677;48.488;13.436;2022-11-20T15:04:24;2.00;;;1.80;;
11238;SDS011;5677;48.488;13.436;2022-11-20T15:06:52;2.30;;;2.10;;
11238;SDS011;5677;48.488;13.436;2022-11-20T15:09:20;1.90;;;1.80;;
11238;SDS011;5677;48.488;13.436;2022-11-20T15:11:52;2.20;;;2.00;;
11238;SDS011;5677;48.488;13.436;2022-11-20T15:14:21;2.30;;;1.63;;
11238;SDS011;5677;48.488;13.436;2022-11-20T15:16:48;1.87;;;1.67;;